sensor_id;sensor_type;location;lat;lon;timestamp;P1;durP1;ratioP1;P2;durP2;ratioP2
76256;SDS011;65074;50.436;8.672;2023-05-23T00:00:53;23.33;;;15.38;;
76256;SDS011;65074;50.436;8.672;2023-05-23T00:03:18;26.27;;;16.48;;
76256;SDS011;65074;50.436;8.672;2023-05-23T00:05:46;24.65;;;15.98;;
76256;SDS011;65074;50.436;8.672;2023-05-23T00:08:12;21.38;;;13.93;;
76256;SDS011;65074;50.436;8.672;2023-05-23T00:10:38;24.10;;;16.45;;
76256;SDS011;65074;50.436;8.672;2023-05-23T00:13:03;23.45;;;16.27;;
76256;SDS011;65074;50.436;8.672;2023-05-23T00:15:29;23.90;;;15.35;;
76256;SDS011;65074;50.436;8.672;2023-05-23T00:17:55;23.90;;;16.88;;
76256;SDS011;65074;50.436;8.672;2023-05-23T00:20:20;27.20;;;17.63;;
76256;SDS011;65074;50.436;8.672;2023-05-23T00:22:46;26.30;;;17.67;;
76256;SDS011;65074;50.436;8.672;2023-05-23T00:25:12;23.65;;;16.40;;
76256;SDS011;65074;50.436;8.672;2023-05-23T00:27:37;26.63;;;16.42;;
76256;SDS011;65074;50.436;8.672;2023-05-23T00:30:03;26.48;;;16.65;;
76256;SDS011;65074;50.436;8.672;2023-05-23T00:32:29;26.65;;;17.27;;
76256;SDS011;65074;50.436;8.672;2023-05-23T00:34:54;27.50;;;18.63;;
76256;SDS011;65074;50.436;8.672;2023-05-23T00:37:20;28.60;;;17.98;;
76256;SDS011;65074;50.436;8.672;2023-05-23T00:39:46;26.92;;;17.45;;
76256;SDS011;65074;50.436;8.672;2023-05-23T00:42:12;26.75;;;17.52;;
76256;SDS011;65074;50.436;8.672;2023-05-23T00:44:38;25.38;;;17.10;;
76256;SDS011;65074;50.436;8.672;2023-05-23T00:47:04;27.30;;;18.13;;
76256;SDS011;65074;50.436;8.672;2023-05-23T00:49:30;25.52;;;17.95;;
76256;SDS011;65074;50.436;8.672;2023-05-23T00:51:56;28.77;;;18.83;;
76256;SDS011;65074;50.436;8.672;2023-05-23T00:54:26;27.05;;;17.45;;
76256;SDS011;65074;50.436;8.672;2023-05-23T00:56:55;29.27;;;18.60;;
76256;SDS011;65074;50.436;8.672;2023-05-23T00:59:20;28.35;;;18.10;;
76256;SDS011;65074;50.436;8.672;2023-05-23T01:01:49;26.65;;;18.25;;
76256;SDS011;65074;50.436;8.672;2023-05-23T01:04:16;29.45;;;18.60;;
76256;SDS011;65074;50.436;8.672;2023-05-23T01:06:41;30.38;;;18.83;;
76256;SDS011;65074;50.436;8.672;2023-05-23T01:09:17;28.35;;;19.15;;
76256;SDS011;65074;50.436;8.672;2023-05-23T01:12:30;30.90;;;19.50;;
76256;SDS011;65074;50.436;8.672;2023-05-23T01:17:33;28.83;;;19.05;;
76256;SDS011;65074;50.436;8.672;2023-05-23T01:28:00;30.90;;;18.70;;
76256;SDS011;65074;50.436;8.672;2023-05-23T01:30:30;34.33;;;20.08;;
76256;SDS011;65074;50.436;8.672;2023-05-23T01:32:57;32.33;;;20.40;;
76256;SDS011;65074;50.436;8.672;2023-05-23T01:35:24;30.50;;;19.83;;
76256;SDS011;65074;50.436;8.672;2023-05-23T01:37:53;30.17;;;19.25;;
76256;SDS011;65074;50.436;8.672;2023-05-23T01:40:19;31.77;;;18.90;;
76256;SDS011;65074;50.436;8.672;2023-05-23T01:42:45;32.97;;;19.90;;
76256;SDS011;65074;50.436;8.672;2023-05-23T01:45:10;29.17;;;18.58;;
76256;SDS011;65074;50.436;8.672;2023-05-23T01:47:37;25.17;;;17.25;;
76256;SDS011;65074;50.436;8.672;2023-05-23T01:50:03;25.10;;;16.92;;
76256;SDS011;65074;50.436;8.672;2023-05-23T01:52:30;26.92;;;16.92;;
76256;SDS011;65074;50.436;8.672;2023-05-23T01:54:56;25.10;;;16.98;;
76256;SDS011;65074;50.436;8.672;2023-05-23T01:57:24;24.00;;;15.15;;
76256;SDS011;65074;50.436;8.672;2023-05-23T01:59:53;23.65;;;14.68;;
76256;SDS011;65074;50.436;8.672;2023-05-23T02:02:18;24.15;;;15.48;;
76256;SDS011;65074;50.436;8.672;2023-05-23T02:04:44;17.73;;;12.50;;
76256;SDS011;65074;50.436;8.672;2023-05-23T02:07:09;17.02;;;11.80;;
76256;SDS011;65074;50.436;8.672;2023-05-23T02:09:35;18.63;;;12.68;;
76256;SDS011;65074;50.436;8.672;2023-05-23T02:12:00;19.50;;;12.55;;
76256;SDS011;65074;50.436;8.672;2023-05-23T02:14:26;17.77;;;12.13;;
76256;SDS011;65074;50.436;8.672;2023-05-23T02:16:52;20.70;;;13.65;;
76256;SDS011;65074;50.436;8.672;2023-05-23T02:19:18;18.65;;;11.88;;
76256;SDS011;65074;50.436;8.672;2023-05-23T02:21:45;20.17;;;12.65;;
76256;SDS011;65074;50.436;8.672;2023-05-23T02:24:10;17.90;;;12.77;;
76256;SDS011;65074;50.436;8.672;2023-05-23T02:26:35;21.67;;;13.55;;
76256;SDS011;65074;50.436;8.672;2023-05-23T02:29:01;23.00;;;14.10;;
76256;SDS011;65074;50.436;8.672;2023-05-23T02:31:27;21.52;;;14.75;;
76256;SDS011;65074;50.436;8.672;2023-05-23T02:33:53;23.80;;;15.55;;
76256;SDS011;65074;50.436;8.672;2023-05-23T02:36:19;20.58;;;14.07;;
76256;SDS011;65074;50.436;8.672;2023-05-23T02:38:44;22.98;;;14.13;;
76256;SDS011;65074;50.436;8.672;2023-05-23T02:41:10;19.92;;;13.05;;
76256;SDS011;65074;50.436;8.672;2023-05-23T02:43:35;18.42;;;12.10;;
76256;SDS011;65074;50.436;8.672;2023-05-23T02:46:01;21.15;;;12.90;;
76256;SDS011;65074;50.436;8.672;2023-05-23T02:48:26;18.75;;;11.73;;
76256;SDS011;65074;50.436;8.672;2023-05-23T02:50:52;17.58;;;12.80;;
76256;SDS011;65074;50.436;8.672;2023-05-23T02:53:18;17.90;;;12.65;;
76256;SDS011;65074;50.436;8.672;2023-05-23T02:55:43;16.73;;;11.25;;
76256;SDS011;65074;50.436;8.672;2023-05-23T02:58:09;18.95;;;12.10;;
76256;SDS011;65074;50.436;8.672;2023-05-23T03:00:34;19.45;;;11.75;;
76256;SDS011;65074;50.436;8.672;2023-05-23T03:03:00;19.83;;;11.68;;
76256;SDS011;65074;50.436;8.672;2023-05-23T03:05:26;18.60;;;12.52;;
76256;SDS011;65074;50.436;8.672;2023-05-23T03:07:52;20.88;;;12.38;;
76256;SDS011;65074;50.436;8.672;2023-05-23T03:10:18;16.33;;;11.75;;
76256;SDS011;65074;50.436;8.672;2023-05-23T03:12:45;18.63;;;10.73;;
76256;SDS011;65074;50.436;8.672;2023-05-23T03:15:13;16.13;;;10.73;;
76256;SDS011;65074;50.436;8.672;2023-05-23T03:17:40;18.38;;;11.57;;
76256;SDS011;65074;50.436;8.672;2023-05-23T03:20:06;14.88;;;9.85;;
76256;SDS011;65074;50.436;8.672;2023-05-23T03:22:34;16.65;;;11.02;;
76256;SDS011;65074;50.436;8.672;2023-05-23T03:25:01;16.40;;;10.18;;
76256;SDS011;65074;50.436;8.672;2023-05-23T03:27:27;16.05;;;10.55;;
76256;SDS011;65074;50.436;8.672;2023-05-23T03:29:52;16.08;;;10.73;;
76256;SDS011;65074;50.436;8.672;2023-05-23T03:32:18;16.35;;;11.38;;
76256;SDS011;65074;50.436;8.672;2023-05-23T03:34:43;18.83;;;12.15;;
76256;SDS011;65074;50.436;8.672;2023-05-23T03:37:09;20.30;;;11.85;;
76256;SDS011;65074;50.436;8.672;2023-05-23T03:39:35;20.63;;;13.10;;
76256;SDS011;65074;50.436;8.672;2023-05-23T03:42:00;17.10;;;12.68;;
76256;SDS011;65074;50.436;8.672;2023-05-23T03:44:26;20.42;;;12.70;;
76256;SDS011;65074;50.436;8.672;2023-05-23T03:46:51;17.13;;;12.57;;
76256;SDS011;65074;50.436;8.672;2023-05-23T03:49:17;18.13;;;11.60;;
76256;SDS011;65074;50.436;8.672;2023-05-23T03:51:42;17.00;;;11.45;;
76256;SDS011;65074;50.436;8.672;2023-05-23T03:54:07;15.85;;;10.57;;
76256;SDS011;65074;50.436;8.672;2023-05-23T03:56:33;16.13;;;10.27;;
76256;SDS011;65074;50.436;8.672;2023-05-23T03:58:59;13.65;;;10.07;;
76256;SDS011;65074;50.436;8.672;2023-05-23T04:01:25;14.85;;;9.80;;
76256;SDS011;65074;50.436;8.672;2023-05-23T04:03:52;13.50;;;9.18;;
76256;SDS011;65074;50.436;8.672;2023-05-23T04:06:18;15.18;;;9.27;;
76256;SDS011;65074;50.436;8.672;2023-05-23T04:08:44;12.93;;;8.48;;
76256;SDS011;65074;50.436;8.672;2023-05-23T04:11:10;12.23;;;8.15;;
76256;SDS011;65074;50.436;8.672;2023-05-23T04:13:38;13.25;;;8.32;;
76256;SDS011;65074;50.436;8.672;2023-05-23T04:16:04;13.63;;;9.05;;
76256;SDS011;65074;50.436;8.672;2023-05-23T04:18:33;12.73;;;8.40;;
76256;SDS011;65074;50.436;8.672;2023-05-23T04:20:58;12.75;;;7.95;;
76256;SDS011;65074;50.436;8.672;2023-05-23T04:23:24;12.05;;;7.88;;
76256;SDS011;65074;50.436;8.672;2023-05-23T04:25:51;14.02;;;9.23;;
76256;SDS011;65074;50.436;8.672;2023-05-23T04:28:24;14.02;;;8.88;;
76256;SDS011;65074;50.436;8.672;2023-05-23T04:30:50;13.25;;;8.32;;
76256;SDS011;65074;50.436;8.672;2023-05-23T04:33:21;12.95;;;7.82;;
76256;SDS011;65074;50.436;8.672;2023-05-23T04:35:46;14.20;;;9.15;;
76256;SDS011;65074;50.436;8.672;2023-05-23T04:38:12;16.23;;;9.50;;
76256;SDS011;65074;50.436;8.672;2023-05-23T04:40:37;13.98;;;8.68;;
76256;SDS011;65074;50.436;8.672;2023-05-23T04:43:23;15.15;;;9.98;;
76256;SDS011;65074;50.436;8.672;2023-05-23T04:45:53;18.75;;;10.05;;
76256;SDS011;65074;50.436;8.672;2023-05-23T04:48:26;18.23;;;10.95;;
76256;SDS011;65074;50.436;8.672;2023-05-23T04:50:52;18.45;;;10.40;;
76256;SDS011;65074;50.436;8.672;2023-05-23T04:53:22;17.27;;;10.55;;
76256;SDS011;65074;50.436;8.672;2023-05-23T04:55:48;18.63;;;10.52;;
76256;SDS011;65074;50.436;8.672;2023-05-23T04:58:16;20.08;;;11.10;;
76256;SDS011;65074;50.436;8.672;2023-05-23T05:00:41;18.98;;;10.55;;
76256;SDS011;65074;50.436;8.672;2023-05-23T05:03:07;16.17;;;10.07;;
76256;SDS011;65074;50.436;8.672;2023-05-23T05:05:37;18.85;;;10.98;;
76256;SDS011;65074;50.436;8.672;2023-05-23T05:08:02;16.02;;;10.05;;
76256;SDS011;65074;50.436;8.672;2023-05-23T05:10:27;16.67;;;9.10;;
76256;SDS011;65074;50.436;8.672;2023-05-23T05:12:53;11.32;;;7.20;;
76256;SDS011;65074;50.436;8.672;2023-05-23T05:15:18;11.80;;;6.30;;
76256;SDS011;65074;50.436;8.672;2023-05-23T05:17:47;12.13;;;7.43;;
76256;SDS011;65074;50.436;8.672;2023-05-23T05:20:14;8.95;;;5.88;;
76256;SDS011;65074;50.436;8.672;2023-05-23T05:22:41;7.15;;;4.53;;
76256;SDS011;65074;50.436;8.672;2023-05-23T05:25:09;4.70;;;3.65;;
76256;SDS011;65074;50.436;8.672;2023-05-23T05:27:36;3.10;;;2.42;;
76256;SDS011;65074;50.436;8.672;2023-05-23T05:30:04;3.78;;;2.80;;
76256;SDS011;65074;50.436;8.672;2023-05-23T05:32:37;3.83;;;2.70;;
76256;SDS011;65074;50.436;8.672;2023-05-23T05:35:03;3.85;;;2.70;;
76256;SDS011;65074;50.436;8.672;2023-05-23T05:37:29;3.13;;;2.50;;
76256;SDS011;65074;50.436;8.672;2023-05-23T05:39:54;2.97;;;2.25;;
76256;SDS011;65074;50.436;8.672;2023-05-23T05:42:20;4.25;;;2.60;;
76256;SDS011;65074;50.436;8.672;2023-05-23T05:44:48;3.00;;;2.63;;
76256;SDS011;65074;50.436;8.672;2023-05-23T05:47:17;3.70;;;2.97;;
76256;SDS011;65074;50.436;8.672;2023-05-23T05:49:43;4.15;;;2.78;;
76256;SDS011;65074;50.436;8.672;2023-05-23T05:52:08;2.47;;;2.20;;
76256;SDS011;65074;50.436;8.672;2023-05-23T05:54:34;4.95;;;2.88;;
76256;SDS011;65074;50.436;8.672;2023-05-23T05:57:00;4.55;;;2.47;;
76256;SDS011;65074;50.436;8.672;2023-05-23T05:59:25;5.28;;;3.03;;
76256;SDS011;65074;50.436;8.672;2023-05-23T06:01:51;5.10;;;2.90;;
76256;SDS011;65074;50.436;8.672;2023-05-23T06:04:17;4.82;;;2.45;;
76256;SDS011;65074;50.436;8.672;2023-05-23T06:06:43;3.67;;;2.92;;
76256;SDS011;65074;50.436;8.672;2023-05-23T06:09:08;4.03;;;2.50;;
76256;SDS011;65074;50.436;8.672;2023-05-23T06:11:35;3.05;;;2.63;;
76256;SDS011;65074;50.436;8.672;2023-05-23T06:14:03;3.55;;;2.80;;
76256;SDS011;65074;50.436;8.672;2023-05-23T06:16:29;4.15;;;2.70;;
76256;SDS011;65074;50.436;8.672;2023-05-23T06:18:54;4.45;;;3.38;;
76256;SDS011;65074;50.436;8.672;2023-05-23T06:21:22;4.13;;;2.78;;
76256;SDS011;65074;50.436;8.672;2023-05-23T06:23:49;2.92;;;2.67;;
76256;SDS011;65074;50.436;8.672;2023-05-23T06:26:15;5.20;;;3.30;;
76256;SDS011;65074;50.436;8.672;2023-05-23T06:28:40;3.40;;;2.80;;
76256;SDS011;65074;50.436;8.672;2023-05-23T06:31:06;3.40;;;2.47;;
76256;SDS011;65074;50.436;8.672;2023-05-23T06:33:34;3.45;;;2.70;;
76256;SDS011;65074;50.436;8.672;2023-05-23T06:36:00;3.28;;;2.60;;
76256;SDS011;65074;50.436;8.672;2023-05-23T06:38:27;4.35;;;2.75;;
76256;SDS011;65074;50.436;8.672;2023-05-23T06:40:54;3.90;;;2.92;;
76256;SDS011;65074;50.436;8.672;2023-05-23T06:43:19;4.57;;;2.90;;
76256;SDS011;65074;50.436;8.672;2023-05-23T06:45:50;3.30;;;3.00;;
76256;SDS011;65074;50.436;8.672;2023-05-23T06:48:16;3.45;;;2.70;;
76256;SDS011;65074;50.436;8.672;2023-05-23T06:50:44;4.00;;;2.70;;
76256;SDS011;65074;50.436;8.672;2023-05-23T06:53:10;3.38;;;2.63;;
76256;SDS011;65074;50.436;8.672;2023-05-23T06:55:36;4.10;;;2.70;;
76256;SDS011;65074;50.436;8.672;2023-05-23T06:58:03;5.75;;;2.97;;
76256;SDS011;65074;50.436;8.672;2023-05-23T07:00:29;3.80;;;2.92;;
76256;SDS011;65074;50.436;8.672;2023-05-23T07:05:37;5.70;;;3.67;;
76256;SDS011;65074;50.436;8.672;2023-05-23T07:08:02;4.38;;;3.35;;
76256;SDS011;65074;50.436;8.672;2023-05-23T07:10:28;6.78;;;4.72;;
76256;SDS011;65074;50.436;8.672;2023-05-23T07:13:00;8.48;;;4.45;;
76256;SDS011;65074;50.436;8.672;2023-05-23T07:15:27;7.68;;;4.78;;
76256;SDS011;65074;50.436;8.672;2023-05-23T07:18:01;5.93;;;4.57;;
76256;SDS011;65074;50.436;8.672;2023-05-23T07:20:27;5.75;;;4.82;;
76256;SDS011;65074;50.436;8.672;2023-05-23T07:22:59;8.02;;;5.35;;
76256;SDS011;65074;50.436;8.672;2023-05-23T07:25:25;9.23;;;5.57;;
76256;SDS011;65074;50.436;8.672;2023-05-23T07:27:51;7.28;;;5.25;;
76256;SDS011;65074;50.436;8.672;2023-05-23T07:30:19;8.43;;;5.75;;
76256;SDS011;65074;50.436;8.672;2023-05-23T07:32:46;11.80;;;7.00;;
76256;SDS011;65074;50.436;8.672;2023-05-23T07:35:14;8.95;;;6.72;;
76256;SDS011;65074;50.436;8.672;2023-05-23T07:37:40;10.30;;;7.80;;
76256;SDS011;65074;50.436;8.672;2023-05-23T07:40:05;9.15;;;6.88;;
76256;SDS011;65074;50.436;8.672;2023-05-23T07:42:34;9.45;;;6.88;;
76256;SDS011;65074;50.436;8.672;2023-05-23T07:45:00;8.93;;;6.18;;
76256;SDS011;65074;50.436;8.672;2023-05-23T07:47:26;9.75;;;6.50;;
76256;SDS011;65074;50.436;8.672;2023-05-23T07:49:51;8.77;;;6.15;;
76256;SDS011;65074;50.436;8.672;2023-05-23T07:52:18;7.90;;;4.93;;
76256;SDS011;65074;50.436;8.672;2023-05-23T07:54:45;8.88;;;6.47;;
76256;SDS011;65074;50.436;8.672;2023-05-23T07:57:11;7.32;;;4.97;;
76256;SDS011;65074;50.436;8.672;2023-05-23T07:59:37;7.15;;;5.28;;
76256;SDS011;65074;50.436;8.672;2023-05-23T08:02:03;7.40;;;5.38;;
76256;SDS011;65074;50.436;8.672;2023-05-23T08:04:28;6.28;;;4.15;;
76256;SDS011;65074;50.436;8.672;2023-05-23T08:06:55;5.80;;;4.68;;
76256;SDS011;65074;50.436;8.672;2023-05-23T08:09:24;8.20;;;5.13;;
76256;SDS011;65074;50.436;8.672;2023-05-23T08:11:55;5.55;;;4.43;;
76256;SDS011;65074;50.436;8.672;2023-05-23T08:14:22;5.75;;;3.70;;
76256;SDS011;65074;50.436;8.672;2023-05-23T08:16:53;5.60;;;4.95;;
76256;SDS011;65074;50.436;8.672;2023-05-23T08:19:22;3.80;;;2.90;;
76256;SDS011;65074;50.436;8.672;2023-05-23T08:21:49;4.32;;;3.42;;
76256;SDS011;65074;50.436;8.672;2023-05-23T08:24:14;3.90;;;2.90;;
76256;SDS011;65074;50.436;8.672;2023-05-23T08:26:40;4.38;;;2.90;;
76256;SDS011;65074;50.436;8.672;2023-05-23T08:29:08;3.33;;;2.42;;
76256;SDS011;65074;50.436;8.672;2023-05-23T08:31:35;4.65;;;3.70;;
76256;SDS011;65074;50.436;8.672;2023-05-23T08:34:01;3.53;;;2.60;;
76256;SDS011;65074;50.436;8.672;2023-05-23T08:36:27;3.40;;;2.38;;
76256;SDS011;65074;50.436;8.672;2023-05-23T08:38:53;3.63;;;3.08;;
76256;SDS011;65074;50.436;8.672;2023-05-23T08:41:29;3.72;;;3.13;;
76256;SDS011;65074;50.436;8.672;2023-05-23T08:44:05;3.42;;;2.83;;
76256;SDS011;65074;50.436;8.672;2023-05-23T08:46:40;3.03;;;2.72;;
76256;SDS011;65074;50.436;8.672;2023-05-23T08:49:10;3.17;;;2.83;;
76256;SDS011;65074;50.436;8.672;2023-05-23T08:51:41;4.05;;;3.28;;
76256;SDS011;65074;50.436;8.672;2023-05-23T08:54:12;5.13;;;3.50;;
76256;SDS011;65074;50.436;8.672;2023-05-23T08:56:38;5.50;;;3.78;;
76256;SDS011;65074;50.436;8.672;2023-05-23T08:59:06;3.30;;;2.70;;
76256;SDS011;65074;50.436;8.672;2023-05-23T09:01:33;3.65;;;3.33;;
76256;SDS011;65074;50.436;8.672;2023-05-23T09:04:02;4.13;;;3.10;;
76256;SDS011;65074;50.436;8.672;2023-05-23T09:06:40;4.20;;;2.80;;
76256;SDS011;65074;50.436;8.672;2023-05-23T09:09:05;6.10;;;3.30;;
76256;SDS011;65074;50.436;8.672;2023-05-23T09:11:31;3.67;;;2.63;;
76256;SDS011;65074;50.436;8.672;2023-05-23T09:13:58;2.72;;;2.00;;
76256;SDS011;65074;50.436;8.672;2023-05-23T09:16:26;2.80;;;2.50;;
76256;SDS011;65074;50.436;8.672;2023-05-23T09:18:56;4.80;;;3.38;;
76256;SDS011;65074;50.436;8.672;2023-05-23T09:21:23;4.07;;;2.60;;
76256;SDS011;65074;50.436;8.672;2023-05-23T09:24:11;4.60;;;3.25;;
76256;SDS011;65074;50.436;8.672;2023-05-23T09:26:37;4.03;;;3.25;;
76256;SDS011;65074;50.436;8.672;2023-05-23T09:29:05;3.92;;;2.78;;
76256;SDS011;65074;50.436;8.672;2023-05-23T09:31:31;4.88;;;3.72;;
76256;SDS011;65074;50.436;8.672;2023-05-23T09:33:57;3.90;;;3.20;;
76256;SDS011;65074;50.436;8.672;2023-05-23T09:36:26;5.15;;;3.55;;
76256;SDS011;65074;50.436;8.672;2023-05-23T09:39:02;3.83;;;3.20;;
76256;SDS011;65074;50.436;8.672;2023-05-23T09:41:35;4.20;;;3.17;;
76256;SDS011;65074;50.436;8.672;2023-05-23T09:44:05;4.80;;;3.33;;
76256;SDS011;65074;50.436;8.672;2023-05-23T09:46:33;3.47;;;2.50;;
76256;SDS011;65074;50.436;8.672;2023-05-23T09:49:00;3.97;;;2.70;;
76256;SDS011;65074;50.436;8.672;2023-05-23T09:51:25;4.30;;;3.00;;
76256;SDS011;65074;50.436;8.672;2023-05-23T09:53:52;5.25;;;2.75;;
76256;SDS011;65074;50.436;8.672;2023-05-23T09:56:18;4.45;;;2.95;;
76256;SDS011;65074;50.436;8.672;2023-05-23T09:58:45;3.67;;;2.88;;
76256;SDS011;65074;50.436;8.672;2023-05-23T10:01:12;5.32;;;3.28;;
76256;SDS011;65074;50.436;8.672;2023-05-23T10:03:39;2.65;;;2.40;;
76256;SDS011;65074;50.436;8.672;2023-05-23T10:06:08;2.30;;;2.10;;
76256;SDS011;65074;50.436;8.672;2023-05-23T10:08:44;3.53;;;2.20;;
76256;SDS011;65074;50.436;8.672;2023-05-23T10:13:44;3.67;;;2.80;;
76256;SDS011;65074;50.436;8.672;2023-05-23T10:19:06;2.33;;;1.88;;
76256;SDS011;65074;50.436;8.672;2023-05-23T10:21:39;2.63;;;1.85;;
76256;SDS011;65074;50.436;8.672;2023-05-23T10:24:10;5.45;;;2.47;;
76256;SDS011;65074;50.436;8.672;2023-05-23T10:26:36;3.60;;;2.80;;
76256;SDS011;65074;50.436;8.672;2023-05-23T10:29:01;4.78;;;3.00;;
76256;SDS011;65074;50.436;8.672;2023-05-23T10:31:27;3.83;;;2.80;;
76256;SDS011;65074;50.436;8.672;2023-05-23T10:34:12;3.15;;;2.63;;
76256;SDS011;65074;50.436;8.672;2023-05-23T10:37:02;3.53;;;2.90;;
76256;SDS011;65074;50.436;8.672;2023-05-23T10:39:40;3.75;;;2.63;;
76256;SDS011;65074;50.436;8.672;2023-05-23T10:45:26;2.83;;;1.80;;
76256;SDS011;65074;50.436;8.672;2023-05-23T10:47:51;2.10;;;1.90;;
76256;SDS011;65074;50.436;8.672;2023-05-23T10:50:34;2.83;;;2.10;;
76256;SDS011;65074;50.436;8.672;2023-05-23T10:53:04;3.08;;;1.98;;
76256;SDS011;65074;50.436;8.672;2023-05-23T10:55:31;2.30;;;1.73;;
76256;SDS011;65074;50.436;8.672;2023-05-23T10:58:07;2.60;;;1.67;;
76256;SDS011;65074;50.436;8.672;2023-05-23T11:00:34;2.92;;;1.73;;
76256;SDS011;65074;50.436;8.672;2023-05-23T11:03:00;4.13;;;1.80;;
76256;SDS011;65074;50.436;8.672;2023-05-23T11:05:30;2.42;;;1.65;;
76256;SDS011;65074;50.436;8.672;2023-05-23T11:10:50;1.65;;;1.40;;
76256;SDS011;65074;50.436;8.672;2023-05-23T11:13:25;1.33;;;1.23;;
76256;SDS011;65074;50.436;8.672;2023-05-23T11:16:30;1.63;;;1.50;;
76256;SDS011;65074;50.436;8.672;2023-05-23T11:19:53;1.67;;;1.38;;
76256;SDS011;65074;50.436;8.672;2023-05-23T11:21:47;1.48;;;1.23;;
76256;SDS011;65074;50.436;8.672;2023-05-23T11:24:14;1.58;;;1.33;;
76256;SDS011;65074;50.436;8.672;2023-05-23T11:26:50;2.65;;;1.27;;
76256;SDS011;65074;50.436;8.672;2023-05-23T11:29:24;1.45;;;1.00;;
76256;SDS011;65074;50.436;8.672;2023-05-23T11:31:50;2.75;;;1.30;;
76256;SDS011;65074;50.436;8.672;2023-05-23T11:34:16;1.30;;;1.00;;
76256;SDS011;65074;50.436;8.672;2023-05-23T11:36:42;1.30;;;1.20;;
76256;SDS011;65074;50.436;8.672;2023-05-23T11:39:08;1.45;;;1.20;;
76256;SDS011;65074;50.436;8.672;2023-05-23T11:41:34;1.50;;;1.25;;
76256;SDS011;65074;50.436;8.672;2023-05-23T11:43:59;1.80;;;1.48;;
76256;SDS011;65074;50.436;8.672;2023-05-23T11:46:25;1.55;;;1.30;;
76256;SDS011;65074;50.436;8.672;2023-05-23T11:48:51;1.73;;;1.25;;
76256;SDS011;65074;50.436;8.672;2023-05-23T11:51:17;1.30;;;1.10;;
76256;SDS011;65074;50.436;8.672;2023-05-23T11:53:43;1.45;;;1.15;;
76256;SDS011;65074;50.436;8.672;2023-05-23T11:56:09;1.45;;;1.00;;
76256;SDS011;65074;50.436;8.672;2023-05-23T11:58:35;2.55;;;1.33;;
76256;SDS011;65074;50.436;8.672;2023-05-23T12:01:05;1.35;;;0.90;;
76256;SDS011;65074;50.436;8.672;2023-05-23T12:03:45;1.52;;;1.42;;
76256;SDS011;65074;50.436;8.672;2023-05-23T12:06:14;1.63;;;1.30;;
76256;SDS011;65074;50.436;8.672;2023-05-23T12:08:40;1.90;;;1.45;;
76256;SDS011;65074;50.436;8.672;2023-05-23T12:11:06;3.83;;;1.35;;
76256;SDS011;65074;50.436;8.672;2023-05-23T12:13:31;1.63;;;1.38;;
76256;SDS011;65074;50.436;8.672;2023-05-23T12:16:00;1.73;;;1.27;;
76256;SDS011;65074;50.436;8.672;2023-05-23T12:18:26;2.22;;;1.70;;
76256;SDS011;65074;50.436;8.672;2023-05-23T12:20:53;2.05;;;1.50;;
76256;SDS011;65074;50.436;8.672;2023-05-23T12:23:22;1.95;;;1.40;;
76256;SDS011;65074;50.436;8.672;2023-05-23T12:25:51;4.72;;;1.92;;
76256;SDS011;65074;50.436;8.672;2023-05-23T12:28:17;2.55;;;1.85;;
76256;SDS011;65074;50.436;8.672;2023-05-23T12:30:44;2.63;;;2.30;;
76256;SDS011;65074;50.436;8.672;2023-05-23T12:33:10;2.35;;;2.15;;
76256;SDS011;65074;50.436;8.672;2023-05-23T12:35:36;2.88;;;1.67;;
76256;SDS011;65074;50.436;8.672;2023-05-23T12:38:02;3.15;;;2.20;;
76256;SDS011;65074;50.436;8.672;2023-05-23T12:40:31;3.03;;;2.40;;
76256;SDS011;65074;50.436;8.672;2023-05-23T12:42:56;2.90;;;2.60;;
76256;SDS011;65074;50.436;8.672;2023-05-23T12:45:22;4.78;;;2.83;;
76256;SDS011;65074;50.436;8.672;2023-05-23T12:47:55;2.95;;;2.38;;
76256;SDS011;65074;50.436;8.672;2023-05-23T12:50:21;3.65;;;2.38;;
76256;SDS011;65074;50.436;8.672;2023-05-23T12:52:46;3.63;;;2.83;;
76256;SDS011;65074;50.436;8.672;2023-05-23T12:55:12;3.70;;;3.15;;
76256;SDS011;65074;50.436;8.672;2023-05-23T12:57:37;4.05;;;3.10;;
76256;SDS011;65074;50.436;8.672;2023-05-23T13:00:03;5.07;;;3.20;;
76256;SDS011;65074;50.436;8.672;2023-05-23T13:02:30;4.65;;;3.47;;
76256;SDS011;65074;50.436;8.672;2023-05-23T13:04:55;4.07;;;2.83;;
76256;SDS011;65074;50.436;8.672;2023-05-23T13:07:21;4.10;;;3.03;;
76256;SDS011;65074;50.436;8.672;2023-05-23T13:09:47;3.63;;;2.75;;
76256;SDS011;65074;50.436;8.672;2023-05-23T13:12:15;4.80;;;3.15;;
76256;SDS011;65074;50.436;8.672;2023-05-23T13:14:40;3.45;;;3.10;;
76256;SDS011;65074;50.436;8.672;2023-05-23T13:17:06;3.92;;;3.33;;
76256;SDS011;65074;50.436;8.672;2023-05-23T13:19:31;4.75;;;3.47;;
76256;SDS011;65074;50.436;8.672;2023-05-23T13:21:57;5.00;;;3.60;;
76256;SDS011;65074;50.436;8.672;2023-05-23T13:24:22;3.95;;;3.05;;
76256;SDS011;65074;50.436;8.672;2023-05-23T13:26:48;5.13;;;3.35;;
76256;SDS011;65074;50.436;8.672;2023-05-23T13:29:14;3.85;;;3.42;;
76256;SDS011;65074;50.436;8.672;2023-05-23T13:31:39;4.40;;;3.00;;
76256;SDS011;65074;50.436;8.672;2023-05-23T13:34:05;4.32;;;2.97;;
76256;SDS011;65074;50.436;8.672;2023-05-23T13:36:30;3.92;;;3.13;;
76256;SDS011;65074;50.436;8.672;2023-05-23T13:38:56;4.40;;;2.88;;
76256;SDS011;65074;50.436;8.672;2023-05-23T13:41:21;4.35;;;2.88;;
76256;SDS011;65074;50.436;8.672;2023-05-23T13:43:47;4.25;;;3.17;;
76256;SDS011;65074;50.436;8.672;2023-05-23T13:46:12;4.22;;;3.30;;
76256;SDS011;65074;50.436;8.672;2023-05-23T13:48:38;5.53;;;3.72;;
76256;SDS011;65074;50.436;8.672;2023-05-23T13:51:04;4.80;;;3.58;;
76256;SDS011;65074;50.436;8.672;2023-05-23T13:53:30;6.05;;;4.03;;
76256;SDS011;65074;50.436;8.672;2023-05-23T13:55:55;6.22;;;4.15;;
76256;SDS011;65074;50.436;8.672;2023-05-23T13:58:21;6.07;;;3.65;;
76256;SDS011;65074;50.436;8.672;2023-05-23T14:00:46;4.85;;;3.97;;
76256;SDS011;65074;50.436;8.672;2023-05-23T14:03:12;5.75;;;3.67;;
76256;SDS011;65074;50.436;8.672;2023-05-23T14:05:39;4.00;;;2.78;;
76256;SDS011;65074;50.436;8.672;2023-05-23T14:08:05;5.15;;;3.00;;
76256;SDS011;65074;50.436;8.672;2023-05-23T14:10:30;5.55;;;3.63;;
76256;SDS011;65074;50.436;8.672;2023-05-23T14:12:57;4.13;;;2.88;;
76256;SDS011;65074;50.436;8.672;2023-05-23T14:15:23;3.92;;;3.05;;
76256;SDS011;65074;50.436;8.672;2023-05-23T14:17:48;4.32;;;2.83;;
76256;SDS011;65074;50.436;8.672;2023-05-23T14:20:19;5.53;;;2.90;;
76256;SDS011;65074;50.436;8.672;2023-05-23T14:22:48;4.32;;;2.88;;
76256;SDS011;65074;50.436;8.672;2023-05-23T14:25:14;2.83;;;2.40;;
76256;SDS011;65074;50.436;8.672;2023-05-23T14:27:40;3.22;;;2.65;;
76256;SDS011;65074;50.436;8.672;2023-05-23T14:30:06;3.03;;;2.70;;
76256;SDS011;65074;50.436;8.672;2023-05-23T14:32:32;4.32;;;2.78;;
76256;SDS011;65074;50.436;8.672;2023-05-23T14:35:02;3.22;;;2.47;;
76256;SDS011;65074;50.436;8.672;2023-05-23T14:37:29;5.00;;;3.08;;
76256;SDS011;65074;50.436;8.672;2023-05-23T14:39:54;4.13;;;2.85;;
76256;SDS011;65074;50.436;8.672;2023-05-23T14:42:20;2.58;;;2.30;;
76256;SDS011;65074;50.436;8.672;2023-05-23T14:44:45;3.95;;;2.65;;
76256;SDS011;65074;50.436;8.672;2023-05-23T14:47:10;7.30;;;2.88;;
76256;SDS011;65074;50.436;8.672;2023-05-23T14:49:36;3.78;;;2.80;;
76256;SDS011;65074;50.436;8.672;2023-05-23T14:52:01;2.70;;;2.20;;
76256;SDS011;65074;50.436;8.672;2023-05-23T14:54:27;5.03;;;2.65;;
76256;SDS011;65074;50.436;8.672;2023-05-23T14:56:52;3.03;;;2.20;;
76256;SDS011;65074;50.436;8.672;2023-05-23T14:59:17;3.05;;;2.53;;
76256;SDS011;65074;50.436;8.672;2023-05-23T15:01:43;4.47;;;2.55;;
76256;SDS011;65074;50.436;8.672;2023-05-23T15:04:08;2.95;;;2.50;;